Time;durP1;ratioP1;P1;durP2;ratioP2;P2;SDS_P1;SDS_P2;PMS_P1;PMS_P2;Temp;Humidity;BMP_temperature;BMP_pressure;BME280_temperature;BME280_humidity;BME280_pressure;Samples;Min_cycle;Max_cycle;Signal;HPM_P1;HPM_P2
2023/06/26 00:00:34;;;;;;;8.27;6.37;;;;;;;18.99;84.36;100352.28;5024982;28;20211;-66
2023/06/26 00:03:00;;;;;;;8.10;6.23;;;;;;;19.02;83.49;100349.53;5022016;28;20233;-66
2023/06/26 00:05:27;;;;;;;9.80;7.17;;;;;;;19.08;82.88;100354.75;5018039;28;20279;-66
2023/06/26 00:07:54;;;;;;;9.07;6.70;;;;;;;19.04;83.26;100342.31;5023124;28;20242;-66
2023/06/26 00:10:20;;;;;;;7.90;6.33;;;;;;;19.06;82.79;100343.16;5025146;28;20648;-66
2023/06/26 00:12:46;;;;;;;8.43;6.77;;;;;;;18.96;83.16;100349.66;5024836;28;20227;-66
2023/06/26 00:15:15;;;;;;;9.23;6.67;;;;;;;18.84;83.53;100351.75;5021858;28;20663;-66
2023/06/26 00:17:42;;;;;;;10.97;6.20;;;;;;;18.68;84.19;100351.16;5024528;28;20299;-66
2023/06/26 00:20:09;;;;;;;8.73;6.93;;;;;;;18.64;84.25;100350.31;5022810;28;20278;-66
2023/06/26 00:22:35;;;;;;;8.23;6.00;;;;;;;18.58;84.52;100346.84;5018923;28;20231;-66
2023/06/26 00:25:02;;;;;;;7.67;6.30;;;;;;;18.60;85.02;100350.41;5020297;28;20199;-66
2023/06/26 00:27:28;;;;;;;8.63;6.70;;;;;;;18.58;84.88;100339.69;5018474;28;20200;-66
2023/06/26 00:29:54;;;;;;;8.53;6.53;;;;;;;18.51;85.08;100342.53;5019303;28;21848;-66
2023/06/26 00:32:21;;;;;;;9.97;6.60;;;;;;;18.57;85.63;100335.25;5017477;28;20242;-66
2023/06/26 00:34:47;;;;;;;8.57;6.53;;;;;;;18.69;84.94;100336.81;5023368;28;20616;-66
2023/06/26 00:37:14;;;;;;;6.93;6.03;;;;;;;18.57;84.96;100339.72;5021055;28;20209;-66
2023/06/26 00:39:40;;;;;;;7.57;6.13;;;;;;;18.39;85.98;100338.28;5019168;28;20203;-66
2023/06/26 00:42:07;;;;;;;8.03;6.50;;;;;;;18.26;87.13;100331.38;5020179;28;20245;-66
2023/06/26 00:44:35;;;;;;;8.47;6.27;;;;;;;18.13;88.03;100328.94;5019268;28;20446;-66
2023/06/26 00:47:01;;;;;;;10.03;6.43;;;;;;;18.10;89.49;100330.81;5017412;28;20200;-66
2023/06/26 00:49:28;;;;;;;8.60;6.20;;;;;;;18.04;90.01;100329.13;5019113;28;20287;-66
2023/06/26 00:51:55;;;;;;;8.87;6.37;;;;;;;17.99;90.48;100328.28;5019187;28;20671;-66
2023/06/26 00:54:22;;;;;;;9.10;6.23;;;;;;;17.93;90.23;100331.09;5017968;28;20199;-66
2023/06/26 00:56:48;;;;;;;7.37;5.90;;;;;;;17.80;90.89;100322.38;5017166;28;20669;-66
2023/06/26 00:59:15;;;;;;;8.60;6.53;;;;;;;17.74;92.04;100321.59;5020241;28;20219;-66
2023/06/26 01:01:41;;;;;;;6.87;6.07;;;;;;;17.67;92.81;100328.88;5016946;28;20737;-66
2023/06/26 01:04:15;;;;;;;7.17;5.97;;;;;;;17.74;92.26;100321.59;5017939;28;20195;-66
2023/06/26 01:06:43;;;;;;;9.23;6.53;;;;;;;17.95;92.14;100326.56;5011699;28;20287;-66
2023/06/26 01:09:09;;;;;;;8.93;6.87;;;;;;;18.00;90.88;100324.69;5014296;28;20203;-66
2023/06/26 01:11:36;;;;;;;8.70;6.77;;;;;;;17.92;91.92;100315.91;5013694;28;20299;-66
2023/06/26 01:14:02;;;;;;;8.17;6.43;;;;;;;17.84;92.76;100312.50;5008670;28;20596;-66
2023/06/26 01:16:30;;;;;;;9.70;6.17;;;;;;;17.81;93.46;100321.47;5010664;28;20204;-65
2023/06/26 01:18:56;;;;;;;9.83;7.20;;;;;;;17.86;92.94;100321.38;5024553;28;20202;-66
2023/06/26 01:21:28;;;;;;;9.57;6.90;;;;;;;17.90;92.70;100312.38;5023965;28;20219;-66
2023/06/26 01:24:09;;;;;;;11.07;6.50;;;;;;;17.80;93.44;100319.69;5015909;28;20216;-66
2023/06/26 01:26:36;;;;;;;11.23;6.73;;;;;;;17.77;94.03;100316.19;5014227;28;20204;-65
2023/06/26 01:29:06;;;;;;;8.33;6.47;;;;;;;17.75;94.20;100315.34;5017192;28;20196;-66
2023/06/26 01:31:33;;;;;;;9.50;6.97;;;;;;;17.59;94.60;100311.09;5023783;28;20727;-66
2023/06/26 01:34:00;;;;;;;9.97;7.03;;;;;;;17.50;95.46;100307.66;5023746;28;20216;-66
2023/06/26 01:36:27;;;;;;;11.03;7.20;;;;;;;17.45;96.49;100311.31;5019244;28;20652;-66
2023/06/26 01:38:53;;;;;;;8.50;6.63;;;;;;;17.35;96.81;100305.25;5024199;28;20203;-66
2023/06/26 01:41:20;;;;;;;8.43;6.77;;;;;;;17.52;96.30;100305.84;5023386;28;20200;-65
2023/06/26 01:43:52;;;;;;;8.33;6.63;;;;;;;17.65;95.12;100303.00;5022221;28;20251;-66
2023/06/26 01:46:24;;;;;;;11.20;7.20;;;;;;;17.59;95.63;100303.94;5021376;28;20261;-66
2023/06/26 01:49:21;;;;;;;10.03;6.60;;;;;;;17.52;96.45;100302.28;5029164;28;20192;-65
2023/06/26 01:52:26;;;;;;;8.93;7.00;;;;;;;17.41;97.98;100301.56;4987804;28;20227;-66
2023/06/26 01:55:28;;;;;;;7.63;6.53;;;;;;;17.30;99.07;100298.19;5026006;28;20807;-66
2023/06/26 01:57:57;;;;;;;10.70;6.50;;;;;;;17.27;99.57;100300.91;4965269;28;20252;-66
2023/06/26 02:00:25;;;;;;;9.27;7.03;;;;;;;17.33;99.52;100301.69;5010907;28;20196;-65
2023/06/26 02:02:52;;;;;;;11.10;7.23;;;;;;;17.48;99.21;100303.25;5023054;28;20227;-66
2023/06/26 02:05:19;;;;;;;8.67;6.97;;;;;;;17.41;98.62;100296.22;5031025;28;20204;-65
2023/06/26 02:07:45;;;;;;;10.53;7.17;;;;;;;17.31;99.34;100302.63;5023569;28;20207;-66
2023/06/26 02:10:11;;;;;;;9.33;6.97;;;;;;;17.21;99.03;100297.44;5022689;28;20495;-66
2023/06/26 02:12:38;;;;;;;9.67;7.17;;;;;;;17.13;100.00;100299.31;5027849;28;20227;-66
2023/06/26 02:15:08;;;;;;;8.63;6.87;;;;;;;17.01;100.00;100295.94;5030894;28;20689;-65
2023/06/26 02:17:34;;;;;;;8.93;7.30;;;;;;;16.89;100.00;100302.34;5024358;28;20207;-66
2023/06/26 02:20:01;;;;;;;9.07;7.27;;;;;;;16.81;100.00;100307.81;5027231;28;20199;-66
2023/06/26 02:22:28;;;;;;;9.10;7.07;;;;;;;16.76;100.00;100306.97;5024252;28;20231;-65
2023/06/26 02:24:54;;;;;;;9.10;7.20;;;;;;;16.72;100.00;100307.03;5026433;28;20694;-66
2023/06/26 02:27:21;;;;;;;11.03;7.10;;;;;;;16.66;100.00;100301.75;5023237;28;20663;-65
2023/06/26 02:29:47;;;;;;;8.53;6.93;;;;;;;16.62;100.00;100298.22;5026676;28;20200;-66
2023/06/26 02:32:14;;;;;;;8.70;6.63;;;;;;;16.64;100.00;100303.53;5028886;28;20613;-66
2023/06/26 02:34:40;;;;;;;8.83;6.87;;;;;;;16.60;100.00;100308.94;5021085;28;20250;-66
2023/06/26 02:37:07;;;;;;;10.17;7.03;;;;;;;16.58;100.00;100302.72;5026181;28;20200;-65
2023/06/26 02:39:35;;;;;;;10.53;7.10;;;;;;;16.55;100.00;100312.56;5026432;28;20748;-66
2023/06/26 02:42:01;;;;;;;9.47;7.43;;;;;;;16.57;100.00;100317.00;5030178;28;20219;-66
2023/06/26 02:44:28;;;;;;;10.57;7.60;;;;;;;16.54;100.00;100317.03;5023410;28;20199;-65
2023/06/26 02:46:54;;;;;;;10.97;7.67;;;;;;;16.49;100.00;100312.66;5028041;28;20207;-66
2023/06/26 02:49:21;;;;;;;11.20;8.07;;;;;;;16.60;100.00;100313.38;5029899;28;20196;-66
2023/06/26 02:51:49;;;;;;;9.77;7.60;;;;;;;16.59;100.00;100309.84;5026665;28;20264;-65
2023/06/26 02:54:15;;;;;;;10.50;8.13;;;;;;;16.52;100.00;100300.13;5024058;28;20291;-66
2023/06/26 02:56:42;;;;;;;10.27;7.80;;;;;;;16.61;100.00;100307.13;5024590;28;20206;-66
2023/06/26 02:59:13;;;;;;;10.80;7.47;;;;;;;16.61;100.00;100299.13;5029145;28;20253;-66
2023/06/26 03:01:40;;;;;;;9.83;7.40;;;;;;;16.63;100.00;100301.78;5018436;28;20219;-66
2023/06/26 03:04:07;;;;;;;10.13;7.60;;;;;;;16.66;100.00;100297.31;5023151;28;20243;-65
2023/06/26 03:06:33;;;;;;;10.23;8.13;;;;;;;16.72;100.00;100294.53;5022085;28;20198;-66
2023/06/26 03:08:59;;;;;;;9.87;7.27;;;;;;;16.66;100.00;100302.66;5022346;28;20302;-65
2023/06/26 03:11:26;;;;;;;11.30;8.27;;;;;;;16.68;100.00;100300.84;5019448;28;20208;-66
2023/06/26 03:13:52;;;;;;;9.80;7.40;;;;;;;16.74;100.00;100298.06;5024042;28;20224;-66
2023/06/26 03:16:19;;;;;;;10.13;7.93;;;;;;;16.71;100.00;100300.78;5027597;28;20640;-66
2023/06/26 03:18:45;;;;;;;11.20;7.37;;;;;;;16.67;100.00;100300.84;5024856;28;20269;-66
2023/06/26 03:21:12;;;;;;;9.27;7.47;;;;;;;16.65;100.00;100303.53;5018611;28;20203;-66
2023/06/26 03:23:39;;;;;;;9.57;7.30;;;;;;;16.64;100.00;100296.41;5024990;28;20710;-66
2023/06/26 03:26:05;;;;;;;9.57;7.37;;;;;;;16.58;100.00;100302.72;5028544;28;20198;-66
2023/06/26 03:28:31;;;;;;;17.23;8.27;;;;;;;16.56;100.00;100292.94;5025853;28;20204;-65
2023/06/26 03:30:58;;;;;;;10.67;8.03;;;;;;;16.58;100.00;100294.69;5019806;28;20207;-65
2023/06/26 03:33:24;;;;;;;9.47;7.57;;;;;;;16.55;100.00;100293.84;5028444;28;20218;-66
2023/06/26 03:35:51;;;;;;;12.97;8.70;;;;;;;16.64;100.00;100291.06;5022981;28;20196;-66
2023/06/26 03:38:17;;;;;;;10.20;8.00;;;;;;;16.79;100.00;100301.56;5025810;28;20199;-66
2023/06/26 03:40:44;;;;;;;11.33;8.07;;;;;;;16.74;100.00;100298.06;5021937;28;20674;-65
2023/06/26 03:43:10;;;;;;;10.80;7.70;;;;;;;16.73;100.00;100298.97;5028120;28;20254;-66
2023/06/26 03:45:36;;;;;;;11.57;7.60;;;;;;;16.75;100.00;100298.97;5021359;28;20227;-66
2023/06/26 03:48:03;;;;;;;10.00;7.97;;;;;;;16.74;100.00;100300.75;5022552;28;20207;-65
2023/06/26 03:50:29;;;;;;;10.07;7.97;;;;;;;16.77;100.00;100291.81;5024191;28;20191;-66
2023/06/26 03:52:56;;;;;;;11.90;8.23;;;;;;;16.75;100.00;100290.94;5028730;28;20243;-66
2023/06/26 03:55:23;;;;;;;9.43;7.50;;;;;;;16.86;100.00;100292.59;5026606;28;20605;-66
2023/06/26 03:57:50;;;;;;;10.10;7.63;;;;;;;16.92;100.00;100297.84;5022456;28;20196;-66
2023/06/26 04:00:16;;;;;;;10.87;7.87;;;;;;;17.00;100.00;100297.72;5019272;28;20201;-66
2023/06/26 04:02:43;;;;;;;10.57;7.70;;;;;;;16.97;100.00;100304.91;5025443;28;20494;-66
2023/06/26 04:05:09;;;;;;;11.33;8.00;;;;;;;16.97;100.00;100292.44;5022219;28;20192;-65
2023/06/26 04:07:37;;;;;;;9.60;7.37;;;;;;;17.05;100.00;100300.34;5017582;28;20360;-65
2023/06/26 04:10:04;;;;;;;9.53;7.47;;;;;;;17.07;100.00;100307.44;5021565;28;20600;-65
2023/06/26 04:12:31;;;;;;;10.30;7.90;;;;;;;17.05;100.00;100303.00;5023022;28;20255;-65
2023/06/26 04:14:57;;;;;;;9.73;7.50;;;;;;;17.09;100.00;100302.94;5020237;28;20210;-66
2023/06/26 04:17:23;;;;;;;10.57;7.40;;;;;;;17.21;100.00;100297.44;5014231;28;20286;-66
2023/06/26 04:19:50;;;;;;;9.97;7.20;;;;;;;17.27;100.00;100301.81;5023380;28;20245;-66
2023/06/26 04:22:16;;;;;;;10.93;7.90;;;;;;;17.38;100.00;100305.19;5026195;28;20268;-66
2023/06/26 04:24:45;;;;;;;12.50;8.07;;;;;;;17.47;100.00;100309.50;5015872;28;20669;-65
2023/06/26 04:27:13;;;;;;;11.40;7.70;;;;;;;17.57;100.00;100305.75;5024093;28;20279;-66
2023/06/26 04:29:40;;;;;;;11.33;7.67;;;;;;;17.65;100.00;100311.91;5023900;28;20683;-66
2023/06/26 04:32:07;;;;;;;13.87;8.07;;;;;;;17.68;100.00;100300.28;5022338;28;20218;-66
2023/06/26 04:34:35;;;;;;;9.00;7.40;;;;;;;17.72;100.00;100299.31;5023459;28;20202;-66
2023/06/26 04:37:04;;;;;;;11.13;7.67;;;;;;;17.85;100.00;100300.88;5026986;28;20235;-66
2023/06/26 04:39:31;;;;;;;9.83;7.50;;;;;;;17.91;100.00;100303.44;5018892;28;20241;-66
2023/06/26 04:41:58;;;;;;;12.93;8.20;;;;;;;18.04;100.00;100296.06;5019942;28;20611;-66
2023/06/26 04:44:24;;;;;;;11.23;8.27;;;;;;;18.15;100.00;100302.09;5025832;28;20216;-66
2023/06/26 04:46:51;;;;;;;10.33;7.60;;;;;;;18.24;100.00;100301.03;5017330;28;20211;-66
2023/06/26 04:49:19;;;;;;;12.00;7.80;;;;;;;18.30;100.00;100307.16;5017142;28;20223;-66
2023/06/26 04:51:46;;;;;;;9.67;7.67;;;;;;;18.43;99.34;100310.50;5025140;28;20679;-66
2023/06/26 04:54:12;;;;;;;9.87;7.77;;;;;;;18.52;98.44;100309.44;5027557;28;20192;-66
2023/06/26 04:56:39;;;;;;;9.80;8.00;;;;;;;18.62;98.47;100311.94;5026671;28;20716;-66
2023/06/26 04:59:06;;;;;;;10.77;8.20;;;;;;;18.69;97.80;100310.88;5026478;28;20295;-66
2023/06/26 05:01:33;;;;;;;9.67;7.37;;;;;;;18.76;97.80;100319.66;5024757;28;20223;-66
2023/06/26 05:03:59;;;;;;;12.30;8.07;;;;;;;18.81;97.44;100311.53;5021258;28;20231;-66
2023/06/26 05:06:25;;;;;;;9.93;7.33;;;;;;;18.88;97.12;100313.19;5016899;28;20204;-66
2023/06/26 05:08:52;;;;;;;8.63;7.40;;;;;;;18.96;97.48;100316.56;5023641;28;20211;-66
2023/06/26 05:11:18;;;;;;;11.00;7.97;;;;;;;19.06;97.48;100319.00;5029141;28;20199;-66
2023/06/26 05:13:45;;;;;;;11.23;8.37;;;;;;;19.15;97.40;100307.19;5025241;28;20220;-66
2023/06/26 05:16:12;;;;;;;9.50;7.67;;;;;;;19.24;97.06;100308.78;5023388;28;20204;-65
2023/06/26 05:18:38;;;;;;;10.10;8.17;;;;;;;19.34;96.58;100311.22;5024202;28;20581;-65
2023/06/26 05:21:05;;;;;;;13.77;8.67;;;;;;;19.47;96.75;100306.44;5018285;28;20218;-66
2023/06/26 05:23:33;;;;;;;11.40;8.60;;;;;;;19.52;96.08;100311.69;5018736;28;20399;-66
2023/06/26 05:26:01;;;;;;;14.83;8.60;;;;;;;19.68;95.54;100311.31;5015690;28;20220;-66
2023/06/26 05:28:28;;;;;;;11.77;8.63;;;;;;;19.76;95.00;100311.13;5027752;28;20203;-66
2023/06/26 05:30:55;;;;;;;10.33;8.33;;;;;;;19.85;94.55;100321.63;5023179;28;20302;-66
2023/06/26 05:33:24;;;;;;;13.57;9.30;;;;;;;20.47;90.80;100320.91;5019772;28;20225;-65
2023/06/26 05:35:52;;;;;;;14.10;9.33;;;;;;;21.11;86.81;100313.59;5024645;28;20206;-65
2023/06/26 05:38:19;;;;;;;14.07;8.80;;;;;;;20.88;83.16;100325.09;5012166;28;20200;-66
2023/06/26 05:40:46;;;;;;;11.00;8.57;;;;;;;20.80;83.50;100316.34;5015419;28;20204;-65
2023/06/26 05:43:13;;;;;;;14.60;8.73;;;;;;;20.80;82.15;100314.53;5024081;28;20219;-66
2023/06/26 05:45:40;;;;;;;10.90;9.18;;;;;;;20.73;80.47;100304.00;5022980;28;20204;-65
2023/06/26 05:48:06;;;;;;;10.60;8.68;;;;;;;20.71;80.64;100306.72;5009536;28;20204;-64
2023/06/26 05:50:34;;;;;;;11.35;8.57;;;;;;;20.82;78.92;100299.25;5021092;28;20209;-64
2023/06/26 05:53:03;;;;;;;10.55;8.32;;;;;;;20.91;77.91;100300.78;5027299;28;20265;-64
2023/06/26 05:55:30;;;;;;;10.65;8.23;;;;;;;20.95;77.70;100306.00;5022975;28;20599;-64
2023/06/26 05:57:58;;;;;;;10.85;7.80;;;;;;;21.30;77.50;100306.75;5019412;28;20203;-64
2023/06/26 06:00:26;;;;;;;11.88;7.72;;;;;;;21.62;75.68;100308.41;5020291;28;20480;-64
2023/06/26 06:02:54;;;;;;;10.07;7.63;;;;;;;21.61;76.33;100305.75;5010310;28;20270;-63
2023/06/26 06:05:21;;;;;;;11.02;7.70;;;;;;;21.40;76.44;100294.75;5020407;28;20196;-63
2023/06/26 06:07:48;;;;;;;10.20;7.93;;;;;;;21.26;76.60;100299.72;5020565;28;20200;-63
2023/06/26 06:10:14;;;;;;;14.27;8.18;;;;;;;21.27;77.50;100296.97;5028417;28;20310;-63
2023/06/26 06:12:41;;;;;;;8.95;7.60;;;;;;;21.37;77.43;100293.97;5024522;28;20731;-63
2023/06/26 06:15:08;;;;;;;12.85;8.98;;;;;;;21.41;77.02;100306.41;5016688;28;20201;-63
2023/06/26 06:17:34;;;;;;;10.98;8.68;;;;;;;21.55;76.96;100305.03;5013977;28;20512;-64
2023/06/26 06:20:01;;;;;;;11.98;8.10;;;;;;;21.75;77.14;100311.56;5016986;28;20613;-64
2023/06/26 06:22:27;;;;;;;11.68;7.82;;;;;;;22.03;76.23;100307.03;5019865;28;20220;-63
2023/06/26 06:24:53;;;;;;;8.60;6.60;;;;;;;22.18;73.09;100311.88;5016461;28;20231;-65
2023/06/26 06:27:20;;;;;;;8.48;6.78;;;;;;;22.37;73.28;100303.13;5012421;28;20192;-65
2023/06/26 06:29:46;;;;;;;11.63;6.78;;;;;;;22.62;70.34;100297.72;5025744;28;20685;-65
2023/06/26 06:32:13;;;;;;;9.85;7.10;;;;;;;22.56;68.90;100300.63;5020884;28;20224;-65
2023/06/26 06:34:39;;;;;;;10.45;7.30;;;;;;;22.74;68.39;100302.63;5017739;28;20224;-65
2023/06/26 06:37:05;;;;;;;11.32;6.88;;;;;;;22.77;68.08;100303.41;5021032;28;20204;-64
2023/06/26 06:39:32;;;;;;;10.55;7.25;;;;;;;22.87;66.83;100303.09;5026689;28;20231;-64
2023/06/26 06:41:58;;;;;;;10.77;7.28;;;;;;;22.87;66.91;100303.97;5006493;28;20211;-64
2023/06/26 06:44:25;;;;;;;7.95;6.03;;;;;;;23.12;66.93;100304.78;5019578;28;20215;-64
2023/06/26 06:46:51;;;;;;;7.28;6.40;;;;;;;23.31;65.75;100291.44;5024753;28;20222;-64
2023/06/26 06:49:18;;;;;;;8.43;6.80;;;;;;;23.60;65.44;100297.47;5019166;28;20211;-64
2023/06/26 06:51:45;;;;;;;10.07;7.15;;;;;;;23.82;64.12;100294.75;5012073;28;20668;-65
2023/06/26 06:54:11;;;;;;;8.30;6.82;;;;;;;24.01;63.52;100299.28;5019268;28;20200;-64
2023/06/26 06:56:37;;;;;;;12.10;7.20;;;;;;;24.05;62.07;100308.19;5024569;28;20222;-64
2023/06/26 06:59:04;;;;;;;9.13;7.28;;;;;;;24.12;61.66;100309.69;5014434;28;20207;-64
2023/06/26 07:01:30;;;;;;;9.70;7.70;;;;;;;24.11;60.36;100313.34;5016785;28;20590;-64
2023/06/26 07:03:57;;;;;;;9.38;6.85;;;;;;;24.48;60.04;100301.78;5029451;28;20254;-65
2023/06/26 07:06:24;;;;;;;8.85;6.75;;;;;;;24.82;60.20;100306.53;5018296;28;20201;-65
2023/06/26 07:08:50;;;;;;;9.82;7.18;;;;;;;25.11;58.35;100310.59;5015464;28;20651;-65
2023/06/26 07:11:16;;;;;;;9.70;7.10;;;;;;;26.16;55.51;100299.94;5025741;28;20200;-64
2023/06/26 07:13:43;;;;;;;7.32;6.13;;;;;;;28.04;47.95;100305.75;5013681;28;20305;-65
2023/06/26 07:16:12;;;;;;;9.30;5.97;;;;;;;29.79;41.57;100310.94;5021759;28;20243;-65
2023/06/26 07:18:38;;;;;;;9.35;6.15;;;;;;;31.02;38.05;100309.63;5014966;28;20230;-65
2023/06/26 07:21:05;;;;;;;9.48;5.85;;;;;;;30.90;36.90;100317.88;5028130;28;20624;-65
2023/06/26 07:23:31;;;;;;;8.27;6.50;;;;;;;31.07;36.79;100312.91;5020671;28;20289;-65
2023/06/26 07:25:57;;;;;;;9.40;6.63;;;;;;;31.79;35.68;100307.59;5014669;28;20574;-66
2023/06/26 07:28:24;;;;;;;8.73;6.00;;;;;;;32.19;34.74;100302.66;5024544;28;20196;-65
2023/06/26 07:30:51;;;;;;;10.07;6.68;;;;;;;32.82;34.19;100305.97;5017899;28;20304;-65
2023/06/26 07:33:17;;;;;;;10.82;5.95;;;;;;;30.55;36.93;100310.28;5012606;28;20311;-65
2023/06/26 07:35:44;;;;;;;8.75;5.75;;;;;;;30.74;36.81;100313.47;5020399;28;20614;-65
2023/06/26 07:38:10;;;;;;;9.02;6.03;;;;;;;31.87;34.41;100305.16;5021354;28;20652;-65
2023/06/26 07:40:36;;;;;;;8.57;6.43;;;;;;;32.89;31.94;100302.63;5023799;28;20214;-64
2023/06/26 07:43:03;;;;;;;8.98;6.00;;;;;;;32.94;30.83;100308.63;5026752;28;20267;-65
2023/06/26 07:45:30;;;;;;;9.27;6.47;;;;;;;33.42;31.23;100299.25;5027865;28;20191;-65
2023/06/26 07:47:56;;;;;;;9.18;6.47;;;;;;;32.82;33.00;100304.09;5023150;28;20567;-65
2023/06/26 07:50:23;;;;;;;11.00;5.97;;;;;;;31.79;34.65;100310.34;5020893;28;20290;-65
2023/06/26 07:52:51;;;;;;;8.98;6.30;;;;;;;30.01;37.87;100321.28;5025114;28;20223;-64
2023/06/26 07:55:18;;;;;;;10.45;6.57;;;;;;;30.00;38.78;100322.25;5022989;28;20195;-65
2023/06/26 07:57:45;;;;;;;11.43;6.20;;;;;;;29.36;40.22;100320.22;5025054;28;20200;-65
2023/06/26 08:00:12;;;;;;;7.20;5.82;;;;;;;29.16;40.95;100326.94;5024479;28;20219;-64
2023/06/26 08:02:38;;;;;;;8.57;6.25;;;;;;;28.85;42.33;100309.84;5023166;28;20227;-65
2023/06/26 08:05:05;;;;;;;8.70;5.82;;;;;;;28.06;44.72;100314.72;5026645;28;20215;-65
2023/06/26 08:07:32;;;;;;;8.40;6.50;;;;;;;29.51;41.92;100322.84;5019763;28;20307;-65
2023/06/26 08:09:58;;;;;;;7.15;6.05;;;;;;;30.29;40.32;100333.97;5023276;28;20199;-65
2023/06/26 08:12:24;;;;;;;9.00;6.00;;;;;;;31.60;37.69;100327.25;5025812;28;20227;-66
2023/06/26 08:14:51;;;;;;;9.63;6.55;;;;;;;32.00;36.51;100330.59;5019274;28;20192;-70
2023/06/26 08:17:17;;;;;;;8.38;6.57;;;;;;;31.10;36.87;100325.47;5011334;28;20214;-68
2023/06/26 08:19:43;;;;;;;9.13;6.00;;;;;;;31.11;37.21;100325.38;5024762;28;20304;-70
2023/06/26 08:22:10;;;;;;;9.82;6.28;;;;;;;30.58;38.38;100317.38;5023461;28;20225;-68
2023/06/26 08:24:36;;;;;;;8.23;6.47;;;;;;;30.22;38.80;100325.31;5020106;28;20227;-67
2023/06/26 08:27:03;;;;;;;9.13;6.30;;;;;;;30.44;38.34;100321.09;5023558;28;20353;-66
2023/06/26 08:29:29;;;;;;;7.65;5.93;;;;;;;31.07;37.29;100315.63;5015951;28;20214;-66
2023/06/26 08:31:56;;;;;;;10.68;6.10;;;;;;;31.75;36.51;100311.56;5019665;28;20290;-67
2023/06/26 08:34:22;;;;;;;9.45;6.18;;;;;;;31.41;35.18;100313.19;5018577;28;20235;-66
2023/06/26 08:36:49;;;;;;;6.70;5.82;;;;;;;30.73;36.43;100322.66;5024332;28;20196;-67
2023/06/26 08:39:15;;;;;;;8.38;6.05;;;;;;;30.45;37.88;100329.19;5023829;28;20254;-66
2023/06/26 08:41:42;;;;;;;7.03;6.05;;;;;;;30.48;38.04;100320.78;5025250;28;20674;-67
2023/06/26 08:44:08;;;;;;;9.95;5.60;;;;;;;30.82;37.87;100318.38;5027038;28;20231;-67
2023/06/26 08:46:35;;;;;;;8.35;5.90;;;;;;;31.03;37.45;100319.59;5023545;28;20197;-67
2023/06/26 08:49:20;;;;;;;8.32;5.90;;;;;;;31.01;37.16;100312.47;5022632;28;20733;-65
2023/06/26 08:51:55;;;;;;;7.80;6.00;;;;;;;31.00;37.66;100317.06;5023412;28;20214;-65
2023/06/26 08:54:28;;;;;;;9.00;6.38;;;;;;;30.43;37.92;100313.88;5024957;28;20223;-64
2023/06/26 08:56:57;;;;;;;8.30;6.38;;;;;;;30.10;38.48;100309.78;5022180;28;20254;-64
2023/06/26 08:59:24;;;;;;;9.95;6.18;;;;;;;30.12;38.70;100313.28;5022624;28;20210;-64
2023/06/26 09:01:51;;;;;;;8.10;5.93;;;;;;;30.39;39.09;100315.94;5026787;28;20287;-64
2023/06/26 09:04:18;;;;;;;6.65;5.78;;;;;;;30.32;38.17;100322.81;5026575;28;20220;-64
2023/06/26 09:06:44;;;;;;;6.32;5.47;;;;;;;30.10;38.21;100311.63;5027553;28;20219;-64
2023/06/26 09:09:11;;;;;;;6.20;5.30;;;;;;;30.11;38.51;100319.72;5026232;28;20202;-64
2023/06/26 09:11:37;;;;;;;6.57;5.32;;;;;;;29.93;38.00;100320.94;5024986;28;20207;-65
2023/06/26 09:14:07;;;;;;;6.93;5.90;;;;;;;30.12;37.74;100323.34;5025105;28;20223;-64
2023/06/26 09:16:41;;;;;;;5.93;5.30;;;;;;;30.36;37.20;100329.81;5028107;28;20282;-64
2023/06/26 09:19:11;;;;;;;6.68;5.05;;;;;;;29.97;37.91;100335.25;5028081;28;20217;-64
2023/06/26 09:21:43;;;;;;;8.10;5.70;;;;;;;30.00;38.20;100330.44;5020019;28;20254;-64
2023/06/26 09:24:10;;;;;;;6.07;4.97;;;;;;;29.86;38.13;100350.50;5026104;28;20223;-65
2023/06/26 09:26:38;;;;;;;6.20;5.35;;;;;;;29.79;38.69;100334.66;5022445;28;20244;-65
2023/06/26 09:29:05;;;;;;;6.68;5.25;;;;;;;30.34;38.05;100342.72;5027022;28;20234;-64
2023/06/26 09:31:39;;;;;;;9.85;5.72;;;;;;;30.95;36.71;100341.16;5029040;28;20286;-65
2023/06/26 09:34:08;;;;;;;5.97;5.35;;;;;;;31.54;35.36;100335.03;5028007;28;20215;-65
2023/06/26 09:36:36;;;;;;;7.88;5.40;;;;;;;31.88;34.94;100342.50;5027276;28;20207;-66
2023/06/26 09:39:10;;;;;;;6.68;5.38;;;;;;;32.12;33.66;100353.47;5024404;28;20567;-66
2023/06/26 09:41:38;;;;;;;6.47;5.45;;;;;;;31.43;34.68;100353.16;5026550;28;20331;-65
2023/06/26 09:44:05;;;;;;;9.00;5.18;;;;;;;31.44;33.99;100354.03;5024326;28;20314;-65
2023/06/26 09:46:32;;;;;;;8.82;4.93;;;;;;;30.90;35.39;100367.09;5026541;28;20204;-67
2023/06/26 09:49:04;;;;;;;6.57;5.32;;;;;;;30.84;36.25;100368.41;5030028;28;20195;-66
2023/06/26 09:51:32;;;;;;;5.95;5.35;;;;;;;30.56;36.27;100364.84;5025871;28;20660;-65
2023/06/26 09:54:00;;;;;;;11.25;5.45;;;;;;;30.42;36.24;100359.47;5029832;28;20221;-65
2023/06/26 09:56:27;;;;;;;7.53;5.63;;;;;;;30.37;36.65;100361.63;5027806;28;20219;-65
2023/06/26 09:58:58;;;;;;;7.47;5.63;;;;;;;30.26;36.73;100345.09;5028026;28;20253;-65
2023/06/26 10:01:25;;;;;;;8.40;5.75;;;;;;;30.24;36.78;100345.22;5026571;28;20199;-66
2023/06/26 10:03:57;;;;;;;7.45;5.53;;;;;;;30.18;37.45;100348.38;5029323;28;20314;-66
2023/06/26 10:06:32;;;;;;;7.15;5.88;;;;;;;30.18;37.23;100339.28;5027209;28;20258;-65
2023/06/26 10:09:00;;;;;;;6.80;5.55;;;;;;;30.49;37.00;100344.41;5024087;28;20667;-66
2023/06/26 10:11:36;;;;;;;9.93;4.93;;;;;;;30.74;36.81;100342.69;5027692;28;20199;-66
2023/06/26 10:14:05;;;;;;;6.85;5.82;;;;;;;30.71;37.24;100351.97;5026751;28;20313;-68
2023/06/26 10:16:45;;;;;;;7.38;5.25;;;;;;;30.60;37.15;100343.66;5021681;28;20195;-66
2023/06/26 10:19:14;;;;;;;7.55;5.95;;;;;;;30.55;37.70;100338.50;5026021;28;20196;-66
2023/06/26 10:21:41;;;;;;;7.72;5.63;;;;;;;30.59;36.66;100346.47;5028057;28;20192;-66
2023/06/26 10:24:10;;;;;;;14.05;6.05;;;;;;;30.51;37.74;100336.09;5023971;28;20314;-66
2023/06/26 10:26:42;;;;;;;7.43;5.70;;;;;;;30.40;37.53;100327.75;5024723;28;20203;-65
2023/06/26 10:29:10;;;;;;;9.90;6.20;;;;;;;29.85;38.47;100337.84;5020115;28;20202;-65
2023/06/26 10:31:38;;;;;;;7.00;5.82;;;;;;;30.23;38.16;100329.81;5024290;28;20222;-65
2023/06/26 10:34:05;;;;;;;6.75;5.90;;;;;;;30.78;36.92;100338.75;5022605;28;20272;-66
2023/06/26 10:36:32;;;;;;;8.52;5.75;;;;;;;30.96;36.46;100334.69;5021152;28;20223;-65
2023/06/26 10:39:06;;;;;;;7.22;6.03;;;;;;;30.91;35.92;100323.22;5028172;28;20203;-65
2023/06/26 10:41:43;;;;;;;6.30;5.70;;;;;;;30.74;36.84;100335.34;5025216;28;20572;-66
2023/06/26 10:44:26;;;;;;;11.07;5.90;;;;;;;30.77;36.41;100326.06;5022564;28;20235;-68
2023/06/26 10:46:58;;;;;;;6.38;5.47;;;;;;;30.21;36.72;100329.03;5021296;28;20580;-68
2023/06/26 10:49:29;;;;;;;8.48;5.68;;;;;;;30.08;37.26;100343.66;5017693;28;20204;-69
2023/06/26 10:52:00;;;;;;;7.35;6.10;;;;;;;29.92;37.46;100332.84;5020255;28;20223;-68
2023/06/26 10:54:32;;;;;;;6.72;5.75;;;;;;;30.51;37.29;100339.69;5017786;28;20199;-68
2023/06/26 10:56:59;;;;;;;8.05;5.78;;;;;;;30.94;35.97;100328.47;5020599;28;20652;-68
2023/06/26 10:59:27;;;;;;;8.00;5.68;;;;;;;31.37;35.27;100330.84;5017984;28;20224;-69
2023/06/26 11:02:04;;;;;;;9.18;5.88;;;;;;;31.63;34.50;100326.16;5026551;28;20199;-68
2023/06/26 11:04:49;;;;;;;6.53;4.97;;;;;;;31.23;34.32;100333.72;5020276;28;20230;-67
2023/06/26 11:07:23;;;;;;;9.10;4.70;;;;;;;31.85;33.10;100331.78;5018939;28;20202;-67
2023/06/26 11:09:55;;;;;;;8.15;4.85;;;;;;;32.18;31.73;100332.94;5018424;28;20194;-69
2023/06/26 11:12:37;;;;;;;6.13;5.35;;;;;;;32.36;31.27;100337.88;5016622;28;20255;-67
2023/06/26 11:15:14;;;;;;;6.53;5.60;;;;;;;32.73;30.55;100330.38;5018810;28;20191;-68
2023/06/26 11:17:44;;;;;;;8.35;5.70;;;;;;;33.10;30.42;100329.31;5019328;28;20195;-68
2023/06/26 11:20:13;;;;;;;7.85;5.80;;;;;;;32.94;29.88;100318.72;5017257;28;20620;-68
2023/06/26 11:22:41;;;;;;;8.43;6.03;;;;;;;32.63;30.61;100323.88;5019500;28;20273;-67